createdAt,value
2019-01-08T00:00:08.716Z,99.99
2019-01-08T00:00:34.823Z,99.99
2019-01-08T00:01:00.927Z,99.99
2019-01-08T00:01:27.039Z,99.99
2019-01-08T00:01:53.145Z,99.99
2019-01-08T00:02:19.247Z,99.99
2019-01-08T00:02:45.360Z,99.99
2019-01-08T00:03:11.533Z,99.99
2019-01-08T00:03:37.656Z,99.99
2019-01-08T00:04:03.757Z,99.99
2019-01-08T00:04:29.868Z,99.99
2019-01-08T00:04:55.974Z,99.99
2019-01-08T00:05:22.076Z,99.99
2019-01-08T00:05:48.186Z,99.99
2019-01-08T00:06:14.288Z,99.99
2019-01-08T00:06:40.391Z,99.99
2019-01-08T00:07:06.502Z,99.99
2019-01-08T00:07:33.344Z,99.99
2019-01-08T00:07:59.451Z,99.99
2019-01-08T00:08:25.559Z,99.99
2019-01-08T00:08:51.688Z,99.99
2019-01-08T00:09:17.828Z,99.99
2019-01-08T00:09:43.930Z,99.99
2019-01-08T00:10:10.068Z,99.99
2019-01-08T00:10:36.174Z,99.99
2019-01-08T00:11:02.306Z,99.99
2019-01-08T00:11:28.415Z,99.99
2019-01-08T00:11:54.521Z,99.99
2019-01-08T00:12:20.634Z,99.99
2019-01-08T00:12:46.738Z,99.99
2019-01-08T00:13:12.848Z,99.99
2019-01-08T00:13:38.954Z,99.99
2019-01-08T00:14:05.064Z,99.99
2019-01-08T00:14:31.162Z,99.99
2019-01-08T00:14:57.269Z,99.99
2019-01-08T00:15:23.408Z,99.99
2019-01-08T00:15:49.510Z,99.99
2019-01-08T00:16:15.635Z,99.99
2019-01-08T00:16:41.748Z,99.99
2019-01-08T00:17:07.856Z,99.99
2019-01-08T00:17:34.042Z,99.99
2019-01-08T00:18:00.094Z,99.99
2019-01-08T00:18:26.198Z,99.99
2019-01-08T00:18:52.302Z,99.99
2019-01-08T00:19:19.285Z,99.99
2019-01-08T00:19:45.395Z,99.99
2019-01-08T00:20:11.496Z,99.99
2019-01-08T00:20:37.603Z,99.99
2019-01-08T00:21:03.711Z,99.99
2019-01-08T00:21:29.813Z,99.99
2019-01-08T00:21:55.925Z,99.99
2019-01-08T00:22:22.035Z,99.99
2019-01-08T00:22:48.137Z,99.99
2019-01-08T00:23:14.240Z,99.99
2019-01-08T00:23:40.353Z,99.99
2019-01-08T00:24:06.474Z,99.99
2019-01-08T00:24:32.586Z,99.99
2019-01-08T00:24:58.694Z,99.99
2019-01-08T00:25:24.797Z,99.99
2019-01-08T00:25:50.928Z,99.99
2019-01-08T00:26:17.042Z,99.99
2019-01-08T00:26:43.170Z,99.99
2019-01-08T00:27:09.279Z,99.99
2019-01-08T00:27:35.386Z,99.99
2019-01-08T00:28:01.519Z,99.99
2019-01-08T00:28:27.624Z,99.99
2019-01-08T00:28:54.714Z,99.99
2019-01-08T00:29:20.826Z,99.99
2019-01-08T00:29:46.926Z,99.99
2019-01-08T00:30:13.039Z,99.99
2019-01-08T00:30:39.169Z,99.99
2019-01-08T00:31:05.281Z,99.99
2019-01-08T00:31:31.381Z,99.99
2019-01-08T00:31:57.524Z,99.99
2019-01-08T00:32:23.630Z,99.99
2019-01-08T00:32:49.741Z,99.99
2019-01-08T00:33:15.864Z,99.99
2019-01-08T00:33:41.996Z,99.99
2019-01-08T00:34:08.098Z,99.99
2019-01-08T00:34:34.210Z,99.99
2019-01-08T00:35:00.316Z,99.99
2019-01-08T00:35:26.410Z,99.99
2019-01-08T00:35:52.522Z,99.99
2019-01-08T00:36:18.665Z,99.99
2019-01-08T00:36:44.767Z,99.99
2019-01-08T00:37:10.873Z,99.99
2019-01-08T00:37:37.012Z,99.99
2019-01-08T00:38:03.190Z,99.99
2019-01-08T00:38:29.247Z,99.99
2019-01-08T00:38:55.344Z,99.99
2019-01-08T00:39:21.459Z,99.99
2019-01-08T00:39:47.566Z,99.99
2019-01-08T00:40:13.667Z,99.99
2019-01-08T00:40:39.780Z,99.99
2019-01-08T00:41:05.884Z,99.99
2019-01-08T00:41:31.996Z,99.99
2019-01-08T00:41:58.101Z,99.99
2019-01-08T00:42:24.207Z,99.99
2019-01-08T00:42:50.334Z,99.99
2019-01-08T00:43:16.441Z,99.99
2019-01-08T00:43:42.570Z,99.99
2019-01-08T00:44:08.678Z,99.99
2019-01-08T00:44:34.812Z,99.99
2019-01-08T00:45:00.921Z,99.99
2019-01-08T00:45:27.095Z,99.99
2019-01-08T00:45:53.137Z,99.99
2019-01-08T00:46:19.245Z,99.99
2019-01-08T00:46:45.353Z,99.99
2019-01-08T00:47:11.453Z,99.99
2019-01-08T00:47:37.563Z,99.99
2019-01-08T00:48:03.702Z,99.99
2019-01-08T00:48:29.799Z,99.99
2019-01-08T00:48:55.907Z,99.99
2019-01-08T00:49:22.041Z,99.99
2019-01-08T00:49:48.151Z,99.99
2019-01-08T00:50:14.253Z,99.99
2019-01-08T00:50:40.355Z,99.99
2019-01-08T00:51:06.466Z,99.99
2019-01-08T00:51:32.593Z,99.99
2019-01-08T00:51:58.695Z,99.99
2019-01-08T00:52:24.803Z,99.99
2019-01-08T00:52:50.913Z,99.99
2019-01-08T00:53:17.011Z,99.99
2019-01-08T00:53:43.119Z,99.99
2019-01-08T00:54:09.272Z,99.99
2019-01-08T00:54:35.378Z,99.99
2019-01-08T00:55:01.514Z,99.99
2019-01-08T00:55:27.625Z,99.99
2019-01-08T00:55:53.761Z,99.99
2019-01-08T00:56:19.864Z,99.99
2019-01-08T00:56:45.975Z,99.99
2019-01-08T00:57:12.086Z,99.99
2019-01-08T00:57:38.195Z,99.99
2019-01-08T00:58:04.295Z,99.99
2019-01-08T00:58:30.407Z,99.99
2019-01-08T00:58:57.499Z,99.99
2019-01-08T00:59:23.609Z,99.99
2019-01-08T00:59:49.736Z,99.99
2019-01-08T01:00:15.916Z,99.99
2019-01-08T01:00:42.024Z,99.99
2019-01-08T01:01:08.125Z,99.99
2019-01-08T01:01:34.238Z,99.99
2019-01-08T01:02:00.345Z,99.99
2019-01-08T01:02:26.472Z,99.99
2019-01-08T01:02:52.582Z,99.99
2019-01-08T01:03:18.692Z,99.99
2019-01-08T01:03:44.793Z,99.99
2019-01-08T01:04:10.903Z,99.99
2019-01-08T01:04:37.003Z,99.99
2019-01-08T01:05:03.105Z,99.99
2019-01-08T01:05:29.216Z,99.99
2019-01-08T01:05:55.321Z,99.99
2019-01-08T01:06:21.424Z,99.99
2019-01-08T01:06:47.526Z,99.99
2019-01-08T01:07:13.631Z,99.99
2019-01-08T01:07:39.747Z,99.99
2019-01-08T01:08:05.845Z,99.99
2019-01-08T01:08:31.981Z,99.99
2019-01-08T01:08:58.117Z,99.99
2019-01-08T01:09:24.241Z,99.99
2019-01-08T01:09:50.352Z,99.99
2019-01-08T01:10:16.480Z,99.99
2019-01-08T01:10:42.589Z,99.99
2019-01-08T01:11:08.689Z,99.99
2019-01-08T01:11:34.823Z,99.99
2019-01-08T01:12:00.929Z,99.99
2019-01-08T01:12:27.045Z,99.99
2019-01-08T01:12:53.153Z,99.99
2019-01-08T01:13:19.258Z,99.99
2019-01-08T01:13:45.363Z,99.99
2019-01-08T01:14:11.468Z,99.99
2019-01-08T01:14:37.578Z,99.99
2019-01-08T01:15:03.682Z,99.99
2019-01-08T01:15:29.793Z,99.99
2019-01-08T01:15:55.897Z,99.99
2019-01-08T01:16:22.004Z,99.99
2019-01-08T01:16:48.114Z,99.99
2019-01-08T01:17:14.243Z,99.99
2019-01-08T01:17:40.383Z,99.99
2019-01-08T01:18:06.486Z,99.99
2019-01-08T01:18:32.586Z,99.99
2019-01-08T01:18:58.719Z,99.99
2019-01-08T01:19:24.826Z,99.99
2019-01-08T01:19:50.933Z,99.99
2019-01-08T01:20:17.093Z,99.99
2019-01-08T01:20:43.198Z,99.99
2019-01-08T01:21:09.335Z,99.99
2019-01-08T01:21:35.443Z,99.99
2019-01-08T01:22:01.574Z,99.99
2019-01-08T01:22:27.690Z,99.99
2019-01-08T01:22:53.794Z,99.99
2019-01-08T01:23:19.911Z,99.99
2019-01-08T01:23:46.020Z,99.99
2019-01-08T01:24:12.159Z,99.99
2019-01-08T01:24:38.256Z,99.99
2019-01-08T01:25:04.362Z,99.99
2019-01-08T01:25:30.475Z,99.99
2019-01-08T01:25:56.681Z,99.99
2019-01-08T01:26:22.726Z,99.99
2019-01-08T01:26:48.832Z,99.99
2019-01-08T01:27:14.966Z,99.99
2019-01-08T01:27:41.093Z,99.99
2019-01-08T01:28:07.205Z,99.99
2019-01-08T01:28:33.307Z,99.99
2019-01-08T01:29:00.536Z,99.99
2019-01-08T01:29:26.539Z,99.99
2019-01-08T01:29:52.645Z,99.99
2019-01-08T01:30:18.743Z,99.99
2019-01-08T01:30:44.856Z,99.99
2019-01-08T01:31:10.959Z,99.99
2019-01-08T01:31:37.093Z,99.99
2019-01-08T01:32:03.196Z,99.99
2019-01-08T01:32:29.307Z,99.99
2019-01-08T01:32:55.439Z,99.99
2019-01-08T01:33:21.563Z,99.99
2019-01-08T01:33:47.677Z,99.99
2019-01-08T01:34:13.781Z,99.99
2019-01-08T01:34:39.912Z,99.99
2019-01-08T01:35:06.020Z,99.99
2019-01-08T01:35:32.131Z,99.99
2019-01-08T01:35:58.232Z,99.99
2019-01-08T01:36:24.337Z,99.99
2019-01-08T01:36:50.447Z,99.99
2019-01-08T01:37:16.558Z,99.99
2019-01-08T01:37:42.667Z,99.99
2019-01-08T01:38:08.771Z,99.99
2019-01-08T01:38:34.874Z,99.99
2019-01-08T01:39:00.987Z,99.99
2019-01-08T01:39:27.090Z,99.93
2019-01-08T01:39:53.191Z,99.93
2019-01-08T01:40:19.304Z,99.99
2019-01-08T01:40:45.440Z,99.99
2019-01-08T01:41:11.568Z,99.99
2019-01-08T01:41:37.674Z,99.99
2019-01-08T01:42:03.789Z,99.99
2019-01-08T01:42:29.890Z,99.99
2019-01-08T01:42:56.003Z,99.74
2019-01-08T01:43:22.101Z,99.84
2019-01-08T01:43:48.273Z,99.93
2019-01-08T01:44:14.375Z,99.74
2019-01-08T01:44:40.507Z,99.93
2019-01-08T01:45:06.612Z,99.27
2019-01-08T01:45:32.747Z,99.36
2019-01-08T01:45:58.848Z,99.27
2019-01-08T01:46:24.957Z,99.17
2019-01-08T01:46:51.090Z,99.27
2019-01-08T01:47:17.224Z,99.36
2019-01-08T01:47:43.364Z,99.17
2019-01-08T01:48:09.475Z,98.79
2019-01-08T01:48:35.572Z,99.31
2019-01-08T01:49:01.686Z,99.17
2019-01-08T01:49:27.793Z,98.69
2019-01-08T01:49:53.894Z,99.27
2019-01-08T01:50:19.997Z,98.98
2019-01-08T01:50:46.140Z,98.93
2019-01-08T01:51:12.239Z,99.27
2019-01-08T01:51:38.348Z,98.79
2019-01-08T01:52:04.482Z,98.6
2019-01-08T01:52:30.586Z,98.69
2019-01-08T01:52:56.688Z,98.79
2019-01-08T01:53:22.796Z,98.41
2019-01-08T01:53:48.901Z,98.79
2019-01-08T01:54:15.583Z,98.41
2019-01-08T01:54:41.720Z,98.5
2019-01-08T01:55:07.830Z,98.88
2019-01-08T01:55:33.962Z,98.79
2019-01-08T01:56:00.105Z,98.6
2019-01-08T01:56:26.235Z,98.41
2019-01-08T01:56:52.345Z,98.22
2019-01-08T01:57:18.454Z,98.32
2019-01-08T01:57:44.553Z,98.32
2019-01-08T01:58:10.699Z,98.6
2019-01-08T01:58:36.801Z,98.32
2019-01-08T01:59:08.245Z,98.5
2019-01-08T01:59:29.620Z,98.6
2019-01-08T01:59:55.732Z,98.6
2019-01-08T02:00:21.828Z,98.6
2019-01-08T02:00:47.940Z,98.41
2019-01-08T02:01:14.043Z,98.6
2019-01-08T02:01:40.173Z,98.6
2019-01-08T02:02:06.284Z,98.41
2019-01-08T02:02:32.391Z,98.32
2019-01-08T02:02:58.517Z,98.22
2019-01-08T02:03:24.624Z,98.32
2019-01-08T02:03:50.729Z,97.65
2019-01-08T02:04:16.853Z,97.46
2019-01-08T02:04:42.989Z,97.46
2019-01-08T02:05:09.098Z,97.27
2019-01-08T02:05:35.233Z,97.46
2019-01-08T02:06:01.377Z,97.55
2019-01-08T02:06:27.474Z,97.46
2019-01-08T02:06:53.577Z,97.27
2019-01-08T02:07:19.692Z,97.79
2019-01-08T02:07:45.804Z,98.41
2019-01-08T02:08:11.902Z,98.13
2019-01-08T02:08:38.012Z,98.32
2019-01-08T02:09:04.117Z,98.13
2019-01-08T02:09:30.221Z,98.03
2019-01-08T02:09:56.326Z,98.32
2019-01-08T02:10:22.432Z,98.32
2019-01-08T02:10:48.544Z,97.36
2019-01-08T02:11:14.649Z,97.74
2019-01-08T02:11:40.754Z,97.55
2019-01-08T02:12:06.866Z,97.46
2019-01-08T02:12:32.971Z,97.55
2019-01-08T02:12:59.075Z,97.17
2019-01-08T02:13:25.184Z,97.08
2019-01-08T02:13:51.289Z,97.46
2019-01-08T02:14:17.395Z,97.36
2019-01-08T02:14:43.531Z,96.7
2019-01-08T02:15:09.633Z,96.98
2019-01-08T02:15:35.732Z,97.08
2019-01-08T02:16:01.842Z,97.08
2019-01-08T02:16:27.944Z,96.89
2019-01-08T02:16:54.050Z,97.27
2019-01-08T02:17:20.162Z,96.7
2019-01-08T02:17:46.262Z,97.17
2019-01-08T02:18:12.375Z,96.79
2019-01-08T02:18:38.511Z,97.27
2019-01-08T02:19:04.623Z,97.27
2019-01-08T02:19:30.723Z,96.7
2019-01-08T02:19:56.826Z,97.17
2019-01-08T02:20:22.938Z,97.27
2019-01-08T02:20:49.051Z,96.79
2019-01-08T02:21:15.154Z,96.79
2019-01-08T02:21:41.258Z,96.98
2019-01-08T02:22:07.365Z,96.79
2019-01-08T02:22:33.504Z,97.36
2019-01-08T02:22:59.642Z,97.65
2019-01-08T02:23:25.747Z,97.36
2019-01-08T02:23:51.875Z,97.46
2019-01-08T02:24:17.980Z,97.27
2019-01-08T02:24:44.122Z,97.65
2019-01-08T02:25:10.222Z,97.08
2019-01-08T02:25:36.333Z,96.98
2019-01-08T02:26:02.434Z,96.98
2019-01-08T02:26:28.572Z,97.46
2019-01-08T02:26:54.682Z,96.98
2019-01-08T02:27:20.785Z,97.17
2019-01-08T02:27:46.891Z,97.55
2019-01-08T02:28:12.990Z,97.46
2019-01-08T02:28:39.100Z,97.08
2019-01-08T02:29:05.208Z,97.08
2019-01-08T02:29:32.322Z,97.08
2019-01-08T02:29:58.428Z,96.89
2019-01-08T02:30:24.590Z,96.89
2019-01-08T02:30:50.720Z,96.6
2019-01-08T02:31:16.885Z,97.22
2019-01-08T02:31:42.994Z,97.46
2019-01-08T02:32:09.100Z,97.46
2019-01-08T02:32:36.227Z,97.31
2019-01-08T02:33:02.339Z,97.36
2019-01-08T02:33:28.439Z,97.46
2019-01-08T02:33:54.566Z,97.27
2019-01-08T02:34:20.673Z,97.08
2019-01-08T02:34:46.805Z,97.17
2019-01-08T02:35:12.906Z,96.98
2019-01-08T02:35:39.039Z,96.98
2019-01-08T02:36:05.144Z,96.84
2019-01-08T02:36:31.250Z,97.03
2019-01-08T02:36:57.362Z,97.36
2019-01-08T02:37:23.462Z,97.08
2019-01-08T02:37:49.572Z,97.08
2019-01-08T02:38:15.709Z,97.17
2019-01-08T02:38:41.848Z,97.46
2019-01-08T02:39:07.973Z,97.27
2019-01-08T02:39:34.079Z,97.84
2019-01-08T02:40:00.189Z,96.98
2019-01-08T02:40:26.338Z,97.27
2019-01-08T02:40:52.450Z,96.98
2019-01-08T02:41:18.704Z,96.89
2019-01-08T02:41:45.191Z,96.84
2019-01-08T02:42:11.457Z,96.51
2019-01-08T02:42:37.609Z,96.79
2019-01-08T02:43:03.718Z,96.84
2019-01-08T02:43:29.932Z,96.89
2019-01-08T02:43:56.054Z,97.08
2019-01-08T02:44:22.518Z,97.03
2019-01-08T02:44:49.026Z,97.27
2019-01-08T02:45:15.256Z,97.03
2019-01-08T02:45:41.359Z,97.41
2019-01-08T02:46:07.557Z,97.31
2019-01-08T02:46:33.821Z,97.03
2019-01-08T02:47:00.109Z,97.22
2019-01-08T02:47:26.209Z,96.94
2019-01-08T02:47:52.317Z,97.03
2019-01-08T02:48:18.447Z,97.13
2019-01-08T02:48:44.549Z,97.41
2019-01-08T02:49:10.669Z,97.46
2019-01-08T02:49:36.807Z,97.31
2019-01-08T02:50:02.942Z,96.84
2019-01-08T02:50:29.049Z,96.84
2019-01-08T02:50:55.222Z,96.74
2019-01-08T02:51:21.393Z,96.84
2019-01-08T02:51:47.503Z,97.03
2019-01-08T02:52:13.598Z,96.74
2019-01-08T02:52:39.711Z,97.5
2019-01-08T02:53:05.842Z,97.31
2019-01-08T02:53:31.993Z,97.31
2019-01-08T02:53:58.092Z,97.5
2019-01-08T02:54:24.394Z,97.22
2019-01-08T02:54:50.717Z,97.22
2019-01-08T02:55:16.871Z,97.6
2019-01-08T02:55:42.980Z,97.5
2019-01-08T02:56:09.079Z,97.31
2019-01-08T02:56:35.193Z,97.69
2019-01-08T02:57:01.298Z,97.69
2019-01-08T02:57:27.407Z,97.6
2019-01-08T02:57:53.522Z,97.5
2019-01-08T02:58:19.621Z,97.6
2019-01-08T02:58:45.732Z,97.6
2019-01-08T02:59:11.830Z,97.6
2019-01-08T02:59:38.951Z,97.79
2019-01-08T03:00:05.050Z,97.31
2019-01-08T03:00:31.157Z,97.6
2019-01-08T03:00:57.265Z,97.41
2019-01-08T03:01:23.369Z,97.41
2019-01-08T03:01:49.476Z,97.79
2019-01-08T03:02:15.581Z,97.41
2019-01-08T03:02:41.690Z,97.79
2019-01-08T03:03:07.792Z,97.6
2019-01-08T03:03:33.903Z,97.31
2019-01-08T03:04:00.031Z,97.5
2019-01-08T03:04:26.141Z,97.41
2019-01-08T03:04:52.237Z,97.69
2019-01-08T03:05:18.347Z,97.6
2019-01-08T03:05:44.450Z,97.69
2019-01-08T03:06:10.554Z,97.41
2019-01-08T03:06:36.655Z,97.41
2019-01-08T03:07:02.765Z,97.41
2019-01-08T03:07:28.866Z,97.6
2019-01-08T03:07:54.965Z,97.5
2019-01-08T03:08:21.076Z,97.41
2019-01-08T03:08:47.183Z,97.41
2019-01-08T03:09:13.287Z,97.31
2019-01-08T03:09:39.395Z,97.41
2019-01-08T03:10:05.498Z,97.69
2019-01-08T03:10:31.604Z,97.79
2019-01-08T03:10:57.709Z,97.6
2019-01-08T03:11:23.811Z,97.41
2019-01-08T03:11:49.923Z,97.6
2019-01-08T03:12:16.025Z,97.69
2019-01-08T03:12:42.161Z,97.31
2019-01-08T03:13:08.261Z,97.69
2019-01-08T03:13:34.407Z,97.41
2019-01-08T03:14:00.515Z,97.41
2019-01-08T03:14:26.621Z,97.79
2019-01-08T03:14:52.749Z,97.5
2019-01-08T03:15:18.863Z,97.79
2019-01-08T03:15:44.970Z,97.22
2019-01-08T03:16:11.070Z,97.41
2019-01-08T03:16:37.172Z,97.13
2019-01-08T03:17:03.286Z,97.13
2019-01-08T03:17:29.394Z,97.41
2019-01-08T03:17:55.493Z,97.31
2019-01-08T03:18:21.597Z,97.22
2019-01-08T03:18:47.700Z,97.31
2019-01-08T03:19:13.802Z,97.41
2019-01-08T03:19:39.908Z,97.03
2019-01-08T03:20:06.013Z,97.22
2019-01-08T03:20:32.122Z,97.22
2019-01-08T03:20:58.259Z,97.31
2019-01-08T03:21:24.370Z,96.84
2019-01-08T03:21:50.475Z,97.41
2019-01-08T03:22:16.582Z,96.94
2019-01-08T03:22:42.683Z,97.22
2019-01-08T03:23:08.790Z,97.6
2019-01-08T03:23:34.891Z,96.84
2019-01-08T03:24:01.000Z,96.74
2019-01-08T03:24:27.105Z,97.03
2019-01-08T03:24:53.214Z,97.03
2019-01-08T03:25:19.341Z,96.84
2019-01-08T03:25:45.450Z,97.31
2019-01-08T03:26:11.557Z,97.13
2019-01-08T03:26:37.665Z,96.74
2019-01-08T03:27:03.776Z,97.03
2019-01-08T03:27:29.877Z,97.22
2019-01-08T03:27:56.000Z,97.22
2019-01-08T03:28:22.094Z,97.31
2019-01-08T03:28:48.205Z,97.22
2019-01-08T03:29:14.301Z,97.13
2019-01-08T03:29:41.396Z,97.41
2019-01-08T03:30:07.511Z,97.41
2019-01-08T03:30:33.666Z,97.03
2019-01-08T03:30:59.830Z,96.46
2019-01-08T03:31:26.042Z,96.94
2019-01-08T03:31:52.155Z,97.69
2019-01-08T03:32:18.340Z,97.41
2019-01-08T03:32:44.442Z,97.03
2019-01-08T03:33:10.553Z,97.13
2019-01-08T03:33:36.658Z,97.22
2019-01-08T03:34:02.758Z,96.74
2019-01-08T03:34:28.931Z,96.84
2019-01-08T03:34:55.040Z,96.84
2019-01-08T03:35:21.175Z,97.22
2019-01-08T03:35:47.277Z,97.6
2019-01-08T03:36:13.390Z,97.22
2019-01-08T03:36:40.489Z,97.5
2019-01-08T03:37:06.623Z,97.41
2019-01-08T03:37:32.733Z,96.94
2019-01-08T03:37:58.864Z,97.22
2019-01-08T03:38:24.971Z,97.13
2019-01-08T03:38:51.098Z,97.13
2019-01-08T03:39:17.201Z,97.13
2019-01-08T03:39:43.309Z,96.94
2019-01-08T03:40:09.412Z,97.22
2019-01-08T03:40:35.513Z,97.31
2019-01-08T03:41:01.623Z,97.5
2019-01-08T03:41:27.753Z,97.5
2019-01-08T03:41:53.882Z,97.41
2019-01-08T03:42:19.987Z,97.22
2019-01-08T03:42:46.097Z,97.5
2019-01-08T03:43:12.194Z,97.22
2019-01-08T03:43:38.300Z,97.03
2019-01-08T03:44:04.412Z,96.74
2019-01-08T03:44:30.510Z,96.94
2019-01-08T03:44:56.618Z,97.6
2019-01-08T03:45:22.721Z,97.6
2019-01-08T03:45:48.822Z,97.6
2019-01-08T03:46:14.928Z,97.6
2019-01-08T03:46:41.058Z,97.6
2019-01-08T03:47:07.162Z,97.41
2019-01-08T03:47:33.258Z,97.22
2019-01-08T03:47:59.371Z,97.13
2019-01-08T03:48:25.476Z,96.55
2019-01-08T03:48:51.606Z,96.74
2019-01-08T03:49:17.707Z,96.84
2019-01-08T03:49:43.820Z,97.22
2019-01-08T03:50:09.947Z,97.31
2019-01-08T03:50:36.046Z,97.5
2019-01-08T03:51:02.159Z,96.84
2019-01-08T03:51:28.261Z,97.13
2019-01-08T03:51:54.373Z,97.22
2019-01-08T03:52:20.478Z,97.6
2019-01-08T03:52:46.580Z,97.31
2019-01-08T03:53:12.684Z,97.22
2019-01-08T03:53:38.796Z,97.22
2019-01-08T03:54:04.905Z,97.5
2019-01-08T03:54:31.003Z,97.22
2019-01-08T03:54:57.113Z,97.03
2019-01-08T03:55:23.219Z,96.84
2019-01-08T03:55:49.327Z,97.13
2019-01-08T03:56:15.429Z,96.84
2019-01-08T03:56:41.535Z,97.31
2019-01-08T03:57:07.646Z,97.13
2019-01-08T03:57:33.752Z,97.13
2019-01-08T03:57:59.861Z,97.31
2019-01-08T03:58:25.963Z,97.41
2019-01-08T03:58:52.078Z,97.13
2019-01-08T03:59:18.214Z,97.41
2019-01-08T03:59:45.332Z,97.03
2019-01-08T04:00:11.440Z,96.94
2019-01-08T04:00:37.549Z,96.94
2019-01-08T04:01:03.687Z,96.65
2019-01-08T04:01:29.786Z,97.03
2019-01-08T04:01:55.924Z,97.69
2019-01-08T04:02:22.032Z,97.03
2019-01-08T04:02:48.165Z,97.41
2019-01-08T04:03:14.270Z,97.41
2019-01-08T04:03:40.380Z,96.94
2019-01-08T04:04:06.511Z,97.03
2019-01-08T04:04:32.612Z,96.94
2019-01-08T04:04:58.748Z,96.94
2019-01-08T04:05:24.855Z,96.74
2019-01-08T04:05:50.964Z,97.03
2019-01-08T04:06:17.076Z,97.41
2019-01-08T04:06:43.179Z,97.31
2019-01-08T04:07:09.289Z,97.03
2019-01-08T04:07:35.431Z,97.03
2019-01-08T04:08:01.495Z,97.5
2019-01-08T04:08:27.626Z,97.5
2019-01-08T04:08:53.736Z,97.79
2019-01-08T04:09:19.833Z,97.22
2019-01-08T04:09:45.945Z,97.22
2019-01-08T04:10:12.052Z,97.5
2019-01-08T04:10:38.159Z,97.41
2019-01-08T04:11:04.298Z,97.22
2019-01-08T04:11:30.398Z,97.41
2019-01-08T04:11:56.508Z,97.41
2019-01-08T04:12:22.622Z,97.41
2019-01-08T04:12:48.722Z,96.94
2019-01-08T04:13:14.832Z,97.22
2019-01-08T04:13:40.964Z,97.6
2019-01-08T04:14:07.072Z,97.6
2019-01-08T04:14:33.174Z,97.41
2019-01-08T04:14:59.270Z,97.79
2019-01-08T04:15:25.382Z,97.13
2019-01-08T04:15:51.490Z,97.41
2019-01-08T04:16:17.617Z,97.5
2019-01-08T04:16:43.729Z,97.6
2019-01-08T04:17:09.836Z,97.79
2019-01-08T04:17:35.946Z,97.6
2019-01-08T04:18:02.056Z,98.08
2019-01-08T04:18:28.188Z,98.17
2019-01-08T04:18:54.320Z,98.17
2019-01-08T04:19:20.427Z,98.17
2019-01-08T04:19:46.531Z,98.08
2019-01-08T04:20:12.645Z,98.08
2019-01-08T04:20:38.743Z,98.17
2019-01-08T04:21:04.855Z,97.98
2019-01-08T04:21:30.956Z,98.17
2019-01-08T04:21:57.069Z,98.08
2019-01-08T04:22:23.170Z,97.6
2019-01-08T04:22:49.280Z,97.6
2019-01-08T04:23:15.376Z,97.41
2019-01-08T04:23:41.474Z,97.41
2019-01-08T04:24:07.579Z,97.5
2019-01-08T04:24:33.679Z,97.98
2019-01-08T04:24:59.785Z,98.08
2019-01-08T04:25:25.888Z,98.08
2019-01-08T04:25:51.994Z,98.46
2019-01-08T04:26:18.126Z,98.27
2019-01-08T04:26:44.251Z,98.27
2019-01-08T04:27:10.363Z,98.55
2019-01-08T04:27:36.489Z,98.46
2019-01-08T04:28:02.598Z,98.27
2019-01-08T04:28:28.697Z,98.36
2019-01-08T04:28:54.810Z,98.46
2019-01-08T04:29:20.915Z,98.55
2019-01-08T04:29:50.537Z,98.93
2019-01-08T04:30:15.096Z,99.31
2019-01-08T04:30:41.206Z,98.93
2019-01-08T04:31:07.342Z,98.74
2019-01-08T04:31:33.446Z,99.79
2019-01-08T04:31:59.550Z,99.69
2019-01-08T04:32:25.653Z,99.5
2019-01-08T04:32:51.763Z,99.6
2019-01-08T04:33:17.879Z,99.6
2019-01-08T04:33:43.980Z,99.5
2019-01-08T04:34:10.090Z,99.6
2019-01-08T04:34:36.198Z,99.41
2019-01-08T04:35:02.305Z,99.6
2019-01-08T04:35:28.408Z,99.98
2019-01-08T04:35:54.518Z,99.98
2019-01-08T04:36:20.683Z,99.98
2019-01-08T04:36:46.789Z,99.31
2019-01-08T04:37:12.894Z,99.69
2019-01-08T04:37:39.000Z,99.6
2019-01-08T04:38:05.107Z,99.99
2019-01-08T04:38:31.243Z,99.98
2019-01-08T04:38:57.375Z,99.99
2019-01-08T04:39:24.933Z,99.99
2019-01-08T04:39:50.591Z,99.99
2019-01-08T04:40:16.698Z,99.99
2019-01-08T04:40:42.795Z,99.99
2019-01-08T04:41:08.904Z,99.99
2019-01-08T04:41:35.031Z,99.99
2019-01-08T04:42:01.173Z,99.99
2019-01-08T04:42:27.280Z,99.99
2019-01-08T04:42:53.387Z,99.99
2019-01-08T04:43:19.491Z,99.98
2019-01-08T04:43:45.601Z,99.99
2019-01-08T04:44:11.703Z,99.6
2019-01-08T04:44:37.806Z,99.84
2019-01-08T04:45:03.912Z,99.64
2019-01-08T04:45:30.520Z,99.84
2019-01-08T04:45:56.629Z,99.64
2019-01-08T04:46:22.734Z,99.79
2019-01-08T04:46:48.834Z,99.79
2019-01-08T04:47:14.946Z,99.74
2019-01-08T04:47:41.082Z,99.55
2019-01-08T04:48:07.229Z,99.26
2019-01-08T04:48:33.362Z,99.36
2019-01-08T04:48:59.469Z,98.79
2019-01-08T04:49:25.598Z,99.93
2019-01-08T04:49:51.703Z,99.64
2019-01-08T04:50:17.813Z,99.55
2019-01-08T04:50:43.920Z,99.74
2019-01-08T04:51:10.025Z,98.79
2019-01-08T04:51:36.135Z,98.88
2019-01-08T04:52:02.265Z,98.79
2019-01-08T04:52:28.371Z,98.65
2019-01-08T04:52:54.472Z,98.31
2019-01-08T04:53:20.573Z,98.74
2019-01-08T04:53:46.678Z,98.79
2019-01-08T04:54:12.790Z,98.55
2019-01-08T04:54:38.892Z,98.27
2019-01-08T04:55:04.994Z,98.36
2019-01-08T04:55:31.133Z,97.69
2019-01-08T04:55:57.239Z,97.88
2019-01-08T04:56:23.347Z,98.22
2019-01-08T04:56:49.447Z,97.93
2019-01-08T04:57:15.555Z,97.64
2019-01-08T04:57:41.668Z,97.31
2019-01-08T04:58:07.772Z,97.31
2019-01-08T04:58:33.880Z,97.31
2019-01-08T04:58:59.985Z,97.22
2019-01-08T04:59:26.089Z,97.03
2019-01-08T04:59:58.834Z,96.79
2019-01-08T05:00:19.947Z,97.17
2019-01-08T05:00:46.058Z,97.41
2019-01-08T05:01:12.192Z,96.89
2019-01-08T05:01:38.320Z,97.03
2019-01-08T05:02:04.428Z,96.94
2019-01-08T05:02:30.537Z,96.94
2019-01-08T05:02:56.647Z,96.74
2019-01-08T05:03:22.785Z,96.6
2019-01-08T05:03:48.893Z,96.22
2019-01-08T05:04:15.046Z,96.31
2019-01-08T05:04:41.162Z,97.03
2019-01-08T05:05:07.258Z,96.36
2019-01-08T05:05:33.373Z,96.6
2019-01-08T05:05:59.505Z,96.84
2019-01-08T05:06:25.610Z,96.69
2019-01-08T05:06:51.716Z,96.5
2019-01-08T05:07:17.823Z,96.55
2019-01-08T05:07:43.969Z,97.03
2019-01-08T05:08:10.035Z,96.46
2019-01-08T05:08:36.138Z,96.26
2019-01-08T05:09:02.236Z,96.98
2019-01-08T05:09:28.348Z,96.94
2019-01-08T05:09:54.457Z,96.98
2019-01-08T05:10:20.563Z,97.22
2019-01-08T05:10:46.665Z,97.6
2019-01-08T05:11:12.772Z,97.36
2019-01-08T05:11:38.887Z,97.6
2019-01-08T05:12:04.992Z,97.88
2019-01-08T05:12:31.160Z,98.17
2019-01-08T05:12:58.249Z,98.12
2019-01-08T05:13:24.359Z,98.22
2019-01-08T05:13:50.454Z,97.22
2019-01-08T05:14:16.564Z,97.6
2019-01-08T05:14:42.669Z,97.5
2019-01-08T05:15:08.772Z,97.6
2019-01-08T05:15:34.900Z,97.5
2019-01-08T05:16:01.001Z,97.41
2019-01-08T05:16:27.114Z,97.41
2019-01-08T05:16:53.246Z,98.27
2019-01-08T05:17:19.379Z,98.17
2019-01-08T05:17:45.536Z,98.08
2019-01-08T05:18:11.640Z,97.6
2019-01-08T05:18:37.747Z,97.6
2019-01-08T05:19:03.852Z,97.13
2019-01-08T05:19:29.957Z,97.03
2019-01-08T05:19:56.094Z,97.03
2019-01-08T05:20:22.231Z,96.94
2019-01-08T05:20:48.339Z,96.94
2019-01-08T05:21:14.457Z,96.94
2019-01-08T05:21:40.585Z,96.36
2019-01-08T05:22:06.687Z,96.55
2019-01-08T05:22:32.794Z,96.94
2019-01-08T05:22:58.897Z,97.13
2019-01-08T05:23:25.039Z,96.74
2019-01-08T05:23:51.167Z,96.94
2019-01-08T05:24:17.299Z,96.94
2019-01-08T05:24:43.463Z,96.55
2019-01-08T05:25:09.617Z,96.36
2019-01-08T05:25:35.814Z,96.36
2019-01-08T05:26:01.919Z,96.46
2019-01-08T05:26:28.050Z,96.26
2019-01-08T05:26:54.152Z,96.46
2019-01-08T05:27:20.258Z,96.26
2019-01-08T05:27:46.361Z,96.17
2019-01-08T05:28:12.465Z,96.36
2019-01-08T05:28:38.606Z,96.17
2019-01-08T05:29:04.718Z,95.89
2019-01-08T05:29:30.819Z,95.41
2019-01-08T05:29:56.920Z,95.7
2019-01-08T05:30:24.044Z,95.79
2019-01-08T05:30:50.145Z,95.98
2019-01-08T05:31:16.256Z,96.08
2019-01-08T05:31:42.362Z,95.79
2019-01-08T05:32:08.467Z,95.41
2019-01-08T05:32:34.576Z,95.32
2019-01-08T05:33:00.735Z,94.74
2019-01-08T05:33:26.870Z,94.84
2019-01-08T05:33:52.980Z,95.32
2019-01-08T05:34:19.112Z,94.93
2019-01-08T05:34:45.212Z,94.98
2019-01-08T05:35:11.349Z,94.74
2019-01-08T05:35:37.450Z,94.93
2019-01-08T05:36:03.551Z,94.56
2019-01-08T05:36:29.659Z,94.89
2019-01-08T05:36:55.766Z,94.89
2019-01-08T05:37:21.866Z,94.65
2019-01-08T05:37:47.974Z,93.94